Terminal Aerodrome Forecast
Issued by NWS

Home | Current Version | Previous Version | Text Only | Print | Product List | Glossary On
Versions: 1 2 3 4 5 6 7 8 9 10 11 12
000
FTUS46 KSGX 180520
TAFSNA
TAF
KSNA 180520Z 1806/1906 VRB04KT P6SM SKC
     FM181100 VRB04KT P6SM VCFG FEW005
     FM181800 22010KT P6SM SKC
     FM190100 VRB05KT P6SM FEW009
     FM190530 VRB05KT P6SM OVC009=

USA.gov is the U.S. government's official web portal to all federal, state and local government web resources and services.